Ban Sai Po Nuea, Thailand

12:55 PM +07 on April 23, 2017 (GMT +0700)
Ao Nang Weather Station | | Change Station

Elev 177 ft 8.05 °N, 98.84 °E | Updated 28 seconds ago

Rain
Rain
89.6 °F
Feels Like 107 °F
N
4.3
Wind Variable Wind from SSE
Gusts 12.0 mph

Today
High -- | Low -- °F
--% Chance of Precip.
Yesterday
High -- | Low -- °F
Precip. -- in
Pressure 29.92 in
Visibility 5.0 miles
Clouds Few 1800 ft
Scattered Clouds 10000 ft
Heat Index 107 °F
Dew Point 80 °F
Humidity 74%
Rainfall 0.00 in
Snow Depth Not available.
6:11 AM 6:33 PM
Waning Crescent, 14% visible
METAR VTSP 230530Z 27010KT 240V330 8000 FEW018 SCT100 31/25 Q1013 NOSIG
Pressure 29.92 in
Visibility 5.0 miles
Clouds Few 1800 ft
Scattered Clouds 10000 ft
Heat Index 107 °F
Dew Point 80 °F
Humidity 74%
Rainfall 0.00 in
Snow Depth Not available.
6:11 AM 6:33 PM
Waning Crescent, 14% visible
METAR VTSP 230530Z 27010KT 240V330 8000 FEW018 SCT100 31/25 Q1013 NOSIG

Get Severe Weather Alerts

Thanks for signing up!

Be on the lookout for a verification email in your inbox.

You'll start receiving the daily forecast at 8 AM.

×

10-Day Weather Forecast

No radar image for this location.
×

Almanac

Astronomy

Apr. 23, 2017 Rise Set
Actual Time
Civil Twilight
Nautical Twilight
Astronomical Twilight
Moon
Length of Visible Light
Length of Day
Tomorrow will be .
, % of the Moon is Illuminated

Today's Extremes

Country Highs Country Lows

Community

WunderPhotos

WunderBlog® & News

Nearby

Air Quality

  Air Quality AQ Index Pollutant
Not available.

Snow Depth

Station Depth Elevation

Earthquake Activity

City Distance Mag. Time & Date
Minimum magnitude displayed is 2.5.

Coastal Water Temperatures

Place Temperature

Stations

Nearby Weather Stations

Station Location Temp. Windchill Dew Point Humidity Wind Precip. Elev Updated Type